sensor_id;sensor_type;location;lat;lon;timestamp;temperature;humidity
8862;DHT22;4799;50.996;4.754;2023-03-01T00:01:48;-1.40;99.90
8862;DHT22;4799;50.996;4.754;2023-03-01T00:04:14;-1.40;99.90
8862;DHT22;4799;50.996;4.754;2023-03-01T00:06:40;-1.40;99.90
8862;DHT22;4799;50.996;4.754;2023-03-01T00:09:08;-1.50;99.90
8862;DHT22;4799;50.996;4.754;2023-03-01T00:11:34;-1.50;99.90
8862;DHT22;4799;50.996;4.754;2023-03-01T00:14:01;-1.50;99.90
8862;DHT22;4799;50.996;4.754;2023-03-01T00:16:33;-1.60;99.90
8862;DHT22;4799;50.996;4.754;2023-03-01T00:18:59;-1.60;99.90
8862;DHT22;4799;50.996;4.754;2023-03-01T00:21:26;-1.70;99.90
8862;DHT22;4799;50.996;4.754;2023-03-01T00:23:53;-1.70;99.90
8862;DHT22;4799;50.996;4.754;2023-03-01T00:26:20;-1.70;99.90
8862;DHT22;4799;50.996;4.754;2023-03-01T00:28:46;-1.80;99.90
8862;DHT22;4799;50.996;4.754;2023-03-01T00:31:18;-1.80;99.90
8862;DHT22;4799;50.996;4.754;2023-03-01T00:33:45;-1.90;99.90
8862;DHT22;4799;50.996;4.754;2023-03-01T00:36:12;-2.00;99.90
8862;DHT22;4799;50.996;4.754;2023-03-01T00:38:41;-2.00;99.90
8862;DHT22;4799;50.996;4.754;2023-03-01T00:41:10;-2.00;99.90
8862;DHT22;4799;50.996;4.754;2023-03-01T00:43:36;-2.00;99.90
8862;DHT22;4799;50.996;4.754;2023-03-01T00:46:09;-2.10;99.90
8862;DHT22;4799;50.996;4.754;2023-03-01T00:48:36;-2.00;99.90
8862;DHT22;4799;50.996;4.754;2023-03-01T00:51:07;-2.10;99.90
8862;DHT22;4799;50.996;4.754;2023-03-01T00:53:33;-2.00;99.90
8862;DHT22;4799;50.996;4.754;2023-03-01T00:56:00;-2.00;99.90
8862;DHT22;4799;50.996;4.754;2023-03-01T00:58:26;-2.00;99.90
8862;DHT22;4799;50.996;4.754;2023-03-01T01:00:52;-2.00;99.90
8862;DHT22;4799;50.996;4.754;2023-03-01T01:03:20;-1.90;99.90
8862;DHT22;4799;50.996;4.754;2023-03-01T01:05:46;-1.90;99.90
8862;DHT22;4799;50.996;4.754;2023-03-01T01:08:12;-1.90;99.90
8862;DHT22;4799;50.996;4.754;2023-03-01T01:10:38;-1.90;99.90
8862;DHT22;4799;50.996;4.754;2023-03-01T01:13:04;-1.90;99.90
8862;DHT22;4799;50.996;4.754;2023-03-01T01:15:33;-1.90;99.90
8862;DHT22;4799;50.996;4.754;2023-03-01T01:18:00;-1.90;99.90
8862;DHT22;4799;50.996;4.754;2023-03-01T01:20:26;-1.80;99.90
8862;DHT22;4799;50.996;4.754;2023-03-01T01:22:52;-1.80;99.90
8862;DHT22;4799;50.996;4.754;2023-03-01T01:25:18;-1.80;99.90
8862;DHT22;4799;50.996;4.754;2023-03-01T01:27:44;-1.80;99.90
8862;DHT22;4799;50.996;4.754;2023-03-01T01:30:10;-1.80;99.90
8862;DHT22;4799;50.996;4.754;2023-03-01T01:32:36;-1.90;99.90
8862;DHT22;4799;50.996;4.754;2023-03-01T01:35:02;-1.90;99.90
8862;DHT22;4799;50.996;4.754;2023-03-01T01:37:28;-1.90;99.90
8862;DHT22;4799;50.996;4.754;2023-03-01T01:40:00;-2.00;99.90
8862;DHT22;4799;50.996;4.754;2023-03-01T01:42:27;-2.00;99.90
8862;DHT22;4799;50.996;4.754;2023-03-01T01:45:29;-2.00;99.90
8862;DHT22;4799;50.996;4.754;2023-03-01T01:47:59;-2.00;99.90
8862;DHT22;4799;50.996;4.754;2023-03-01T01:50:26;-2.10;99.90
8862;DHT22;4799;50.996;4.754;2023-03-01T01:52:53;-2.20;99.90
8862;DHT22;4799;50.996;4.754;2023-03-01T01:55:24;-2.20;99.90
8862;DHT22;4799;50.996;4.754;2023-03-01T01:57:55;-2.30;99.90
8862;DHT22;4799;50.996;4.754;2023-03-01T02:00:25;-2.40;99.90
8862;DHT22;4799;50.996;4.754;2023-03-01T02:02:57;-2.40;99.90
8862;DHT22;4799;50.996;4.754;2023-03-01T02:05:53;-2.50;99.90
8862;DHT22;4799;50.996;4.754;2023-03-01T02:08:21;-2.60;99.90
8862;DHT22;4799;50.996;4.754;2023-03-01T02:10:49;-2.70;99.90
8862;DHT22;4799;50.996;4.754;2023-03-01T02:13:16;-2.60;99.90
8862;DHT22;4799;50.996;4.754;2023-03-01T02:15:42;-2.80;99.90
8862;DHT22;4799;50.996;4.754;2023-03-01T02:18:11;-2.80;99.90
8862;DHT22;4799;50.996;4.754;2023-03-01T02:23:27;-2.80;99.90
8862;DHT22;4799;50.996;4.754;2023-03-01T02:28:38;-3.00;99.90
8862;DHT22;4799;50.996;4.754;2023-03-01T02:31:09;-3.00;99.90
8862;DHT22;4799;50.996;4.754;2023-03-01T02:33:54;-3.00;99.90
8862;DHT22;4799;50.996;4.754;2023-03-01T02:36:26;-3.10;99.90
8862;DHT22;4799;50.996;4.754;2023-03-01T02:38:57;-3.10;99.90
8862;DHT22;4799;50.996;4.754;2023-03-01T02:41:25;-3.10;99.90
8862;DHT22;4799;50.996;4.754;2023-03-01T02:43:52;-3.10;99.90
8862;DHT22;4799;50.996;4.754;2023-03-01T02:46:21;-3.10;99.90
8862;DHT22;4799;50.996;4.754;2023-03-01T02:48:58;-3.10;99.90
8862;DHT22;4799;50.996;4.754;2023-03-01T02:54:20;-3.10;99.90
8862;DHT22;4799;50.996;4.754;2023-03-01T02:56:48;-3.10;99.90
8862;DHT22;4799;50.996;4.754;2023-03-01T02:59:17;-3.20;99.90
8862;DHT22;4799;50.996;4.754;2023-03-01T03:01:43;-3.20;99.90
8862;DHT22;4799;50.996;4.754;2023-03-01T03:04:13;-3.20;99.90
8862;DHT22;4799;50.996;4.754;2023-03-01T03:06:43;-3.10;99.90
8862;DHT22;4799;50.996;4.754;2023-03-01T03:09:09;-3.20;99.90
8862;DHT22;4799;50.996;4.754;2023-03-01T03:11:34;-3.20;99.90
8862;DHT22;4799;50.996;4.754;2023-03-01T03:14:02;-3.20;99.90
8862;DHT22;4799;50.996;4.754;2023-03-01T03:16:28;-3.20;99.90
8862;DHT22;4799;50.996;4.754;2023-03-01T03:18:55;-3.20;99.90
8862;DHT22;4799;50.996;4.754;2023-03-01T03:21:33;-3.20;99.90
8862;DHT22;4799;50.996;4.754;2023-03-01T03:23:59;-3.20;99.90
8862;DHT22;4799;50.996;4.754;2023-03-01T03:26:25;-3.20;99.90
8862;DHT22;4799;50.996;4.754;2023-03-01T03:28:51;-3.20;99.90
8862;DHT22;4799;50.996;4.754;2023-03-01T03:31:17;-3.20;99.90
8862;DHT22;4799;50.996;4.754;2023-03-01T03:33:42;-3.20;99.90
8862;DHT22;4799;50.996;4.754;2023-03-01T03:36:09;-3.20;99.90
8862;DHT22;4799;50.996;4.754;2023-03-01T03:38:44;-3.20;99.90
8862;DHT22;4799;50.996;4.754;2023-03-01T03:41:11;-3.20;99.90
8862;DHT22;4799;50.996;4.754;2023-03-01T03:43:39;-3.20;99.90
8862;DHT22;4799;50.996;4.754;2023-03-01T03:46:06;-3.20;99.90
8862;DHT22;4799;50.996;4.754;2023-03-01T03:48:40;-3.20;99.90
8862;DHT22;4799;50.996;4.754;2023-03-01T03:51:09;-3.10;99.90
8862;DHT22;4799;50.996;4.754;2023-03-01T03:53:35;-3.10;99.90
8862;DHT22;4799;50.996;4.754;2023-03-01T03:56:01;-3.00;99.90
8862;DHT22;4799;50.996;4.754;2023-03-01T03:58:27;-3.00;99.90
8862;DHT22;4799;50.996;4.754;2023-03-01T04:00:55;-3.00;99.90
8862;DHT22;4799;50.996;4.754;2023-03-01T04:03:22;-3.00;99.90
8862;DHT22;4799;50.996;4.754;2023-03-01T04:05:49;-3.00;99.90
8862;DHT22;4799;50.996;4.754;2023-03-01T04:08:20;-3.00;99.90
8862;DHT22;4799;50.996;4.754;2023-03-01T04:10:48;-3.00;99.90
8862;DHT22;4799;50.996;4.754;2023-03-01T04:13:17;-3.00;99.90
8862;DHT22;4799;50.996;4.754;2023-03-01T04:15:49;-3.10;99.90
8862;DHT22;4799;50.996;4.754;2023-03-01T04:18:16;-3.10;99.90
8862;DHT22;4799;50.996;4.754;2023-03-01T04:20:43;-3.20;99.90
8862;DHT22;4799;50.996;4.754;2023-03-01T04:23:14;-3.20;99.90
8862;DHT22;4799;50.996;4.754;2023-03-01T04:28:38;-3.30;99.90
8862;DHT22;4799;50.996;4.754;2023-03-01T04:31:11;-3.20;99.90
8862;DHT22;4799;50.996;4.754;2023-03-01T04:33:44;-3.20;99.90
8862;DHT22;4799;50.996;4.754;2023-03-01T04:36:11;-3.10;99.90
8862;DHT22;4799;50.996;4.754;2023-03-01T04:38:38;-3.20;99.90
8862;DHT22;4799;50.996;4.754;2023-03-01T04:41:05;-3.20;99.90
8862;DHT22;4799;50.996;4.754;2023-03-01T04:43:31;-3.20;99.90
8862;DHT22;4799;50.996;4.754;2023-03-01T04:46:19;-3.20;99.90
8862;DHT22;4799;50.996;4.754;2023-03-01T04:48:46;-3.20;99.90
8862;DHT22;4799;50.996;4.754;2023-03-01T04:51:12;-3.20;99.90
8862;DHT22;4799;50.996;4.754;2023-03-01T04:53:39;-3.20;99.90
8862;DHT22;4799;50.996;4.754;2023-03-01T04:56:05;-3.30;99.90
8862;DHT22;4799;50.996;4.754;2023-03-01T04:58:31;-3.30;99.90
8862;DHT22;4799;50.996;4.754;2023-03-01T05:00:57;-3.30;99.90
8862;DHT22;4799;50.996;4.754;2023-03-01T05:03:23;-3.30;99.90
8862;DHT22;4799;50.996;4.754;2023-03-01T05:05:50;-3.30;99.90
8862;DHT22;4799;50.996;4.754;2023-03-01T05:08:17;-3.20;99.90
8862;DHT22;4799;50.996;4.754;2023-03-01T05:10:51;-3.30;99.90
8862;DHT22;4799;50.996;4.754;2023-03-01T05:13:18;-3.30;99.90
8862;DHT22;4799;50.996;4.754;2023-03-01T05:15:58;-3.40;99.90
8862;DHT22;4799;50.996;4.754;2023-03-01T05:18:25;-3.40;99.90
8862;DHT22;4799;50.996;4.754;2023-03-01T05:20:55;-3.40;99.90
8862;DHT22;4799;50.996;4.754;2023-03-01T05:23:24;-3.40;99.90
8862;DHT22;4799;50.996;4.754;2023-03-01T05:25:50;-3.50;99.90
8862;DHT22;4799;50.996;4.754;2023-03-01T05:28:19;-3.50;99.90
8862;DHT22;4799;50.996;4.754;2023-03-01T05:30:45;-3.50;99.90
8862;DHT22;4799;50.996;4.754;2023-03-01T05:33:11;-3.60;99.90
8862;DHT22;4799;50.996;4.754;2023-03-01T05:35:41;-3.60;99.90
8862;DHT22;4799;50.996;4.754;2023-03-01T05:38:08;-3.60;99.90
8862;DHT22;4799;50.996;4.754;2023-03-01T05:40:34;-3.60;99.90
8862;DHT22;4799;50.996;4.754;2023-03-01T05:43:00;-3.60;99.90
8862;DHT22;4799;50.996;4.754;2023-03-01T05:45:27;-3.70;99.90
8862;DHT22;4799;50.996;4.754;2023-03-01T05:47:54;-3.70;99.90
8862;DHT22;4799;50.996;4.754;2023-03-01T05:50:22;-3.80;99.90
8862;DHT22;4799;50.996;4.754;2023-03-01T05:53:03;-3.70;99.90
8862;DHT22;4799;50.996;4.754;2023-03-01T05:55:31;-3.70;99.90
8862;DHT22;4799;50.996;4.754;2023-03-01T05:58:05;-3.70;99.90
8862;DHT22;4799;50.996;4.754;2023-03-01T06:00:32;-3.70;99.90
8862;DHT22;4799;50.996;4.754;2023-03-01T06:02:59;-3.70;99.90
8862;DHT22;4799;50.996;4.754;2023-03-01T06:05:25;-3.70;99.90
8862;DHT22;4799;50.996;4.754;2023-03-01T06:07:51;-3.70;99.90
8862;DHT22;4799;50.996;4.754;2023-03-01T06:10:18;-3.60;99.90
8862;DHT22;4799;50.996;4.754;2023-03-01T06:12:45;-3.60;99.90
8862;DHT22;4799;50.996;4.754;2023-03-01T06:15:15;-3.60;99.90
8862;DHT22;4799;50.996;4.754;2023-03-01T06:17:43;-3.60;99.90
8862;DHT22;4799;50.996;4.754;2023-03-01T06:20:21;-3.60;99.90
8862;DHT22;4799;50.996;4.754;2023-03-01T06:22:47;-3.50;99.90
8862;DHT22;4799;50.996;4.754;2023-03-01T06:25:15;-3.60;99.90
8862;DHT22;4799;50.996;4.754;2023-03-01T06:27:41;-3.70;99.90
8862;DHT22;4799;50.996;4.754;2023-03-01T06:30:09;-3.70;99.90
8862;DHT22;4799;50.996;4.754;2023-03-01T06:32:36;-3.70;99.90
8862;DHT22;4799;50.996;4.754;2023-03-01T06:35:03;-3.70;99.90
8862;DHT22;4799;50.996;4.754;2023-03-01T06:37:29;-3.70;99.90
8862;DHT22;4799;50.996;4.754;2023-03-01T06:39:55;-3.80;99.90
8862;DHT22;4799;50.996;4.754;2023-03-01T06:42:21;-3.80;99.90
8862;DHT22;4799;50.996;4.754;2023-03-01T06:44:47;-3.80;99.90
8862;DHT22;4799;50.996;4.754;2023-03-01T06:47:13;-3.90;99.90
8862;DHT22;4799;50.996;4.754;2023-03-01T06:49:38;-3.90;99.90
8862;DHT22;4799;50.996;4.754;2023-03-01T06:52:04;-4.00;99.90
8862;DHT22;4799;50.996;4.754;2023-03-01T06:54:30;-4.00;99.90
8862;DHT22;4799;50.996;4.754;2023-03-01T06:56:55;-4.00;99.90
8862;DHT22;4799;50.996;4.754;2023-03-01T06:59:21;-4.00;99.90
8862;DHT22;4799;50.996;4.754;2023-03-01T07:01:47;-4.00;99.90
8862;DHT22;4799;50.996;4.754;2023-03-01T07:04:13;-3.90;99.90
8862;DHT22;4799;50.996;4.754;2023-03-01T07:06:39;-3.90;99.90
8862;DHT22;4799;50.996;4.754;2023-03-01T07:09:05;-3.80;99.90
8862;DHT22;4799;50.996;4.754;2023-03-01T07:11:32;-3.70;99.90
8862;DHT22;4799;50.996;4.754;2023-03-01T07:13:58;-3.70;99.90
8862;DHT22;4799;50.996;4.754;2023-03-01T07:16:25;-3.60;99.90
8862;DHT22;4799;50.996;4.754;2023-03-01T07:18:51;-3.50;99.90
8862;DHT22;4799;50.996;4.754;2023-03-01T07:21:17;-3.40;99.90
8862;DHT22;4799;50.996;4.754;2023-03-01T07:23:42;-3.40;99.90
8862;DHT22;4799;50.996;4.754;2023-03-01T07:26:08;-3.30;99.90
8862;DHT22;4799;50.996;4.754;2023-03-01T07:28:34;-3.20;99.90
8862;DHT22;4799;50.996;4.754;2023-03-01T07:31:05;-3.10;99.90
8862;DHT22;4799;50.996;4.754;2023-03-01T07:33:32;-3.00;99.90
8862;DHT22;4799;50.996;4.754;2023-03-01T07:35:59;-3.00;99.90
8862;DHT22;4799;50.996;4.754;2023-03-01T07:38:26;-2.90;99.90
8862;DHT22;4799;50.996;4.754;2023-03-01T07:40:52;-2.80;99.90
8862;DHT22;4799;50.996;4.754;2023-03-01T07:43:17;-2.60;99.90
8862;DHT22;4799;50.996;4.754;2023-03-01T07:45:43;-2.50;99.90
8862;DHT22;4799;50.996;4.754;2023-03-01T07:48:09;-2.40;99.90
8862;DHT22;4799;50.996;4.754;2023-03-01T07:50:35;-2.30;99.90
8862;DHT22;4799;50.996;4.754;2023-03-01T07:53:00;-2.30;99.90
8862;DHT22;4799;50.996;4.754;2023-03-01T07:55:26;-2.20;99.90
8862;DHT22;4799;50.996;4.754;2023-03-01T07:57:52;-2.10;99.90
8862;DHT22;4799;50.996;4.754;2023-03-01T08:00:18;-2.00;99.90
8862;DHT22;4799;50.996;4.754;2023-03-01T08:02:44;-2.00;99.90
8862;DHT22;4799;50.996;4.754;2023-03-01T08:05:10;-1.90;99.90
8862;DHT22;4799;50.996;4.754;2023-03-01T08:07:37;-1.80;99.90
8862;DHT22;4799;50.996;4.754;2023-03-01T08:10:03;-1.70;99.90
8862;DHT22;4799;50.996;4.754;2023-03-01T08:12:29;-1.70;99.90
8862;DHT22;4799;50.996;4.754;2023-03-01T08:14:55;-1.60;99.90
8862;DHT22;4799;50.996;4.754;2023-03-01T08:17:22;-1.50;99.90
8862;DHT22;4799;50.996;4.754;2023-03-01T08:19:48;-1.40;99.90
8862;DHT22;4799;50.996;4.754;2023-03-01T08:22:14;-1.30;99.90
8862;DHT22;4799;50.996;4.754;2023-03-01T08:24:40;-1.30;99.90
8862;DHT22;4799;50.996;4.754;2023-03-01T08:27:06;-1.20;99.90
8862;DHT22;4799;50.996;4.754;2023-03-01T08:29:32;-1.10;99.90
8862;DHT22;4799;50.996;4.754;2023-03-01T08:31:59;-1.00;99.90
8862;DHT22;4799;50.996;4.754;2023-03-01T08:34:25;-1.00;99.90
8862;DHT22;4799;50.996;4.754;2023-03-01T08:36:51;-0.90;99.90
8862;DHT22;4799;50.996;4.754;2023-03-01T08:39:19;-0.80;99.90
8862;DHT22;4799;50.996;4.754;2023-03-01T08:41:46;-0.70;99.90
8862;DHT22;4799;50.996;4.754;2023-03-01T08:44:12;-0.60;99.90
8862;DHT22;4799;50.996;4.754;2023-03-01T08:46:40;-0.50;99.90
8862;DHT22;4799;50.996;4.754;2023-03-01T08:49:17;-0.40;99.90
8862;DHT22;4799;50.996;4.754;2023-03-01T08:51:44;-0.30;99.90
8862;DHT22;4799;50.996;4.754;2023-03-01T08:54:13;-0.20;99.90
8862;DHT22;4799;50.996;4.754;2023-03-01T08:56:40;-0.10;99.90
8862;DHT22;4799;50.996;4.754;2023-03-01T08:59:06;-0.10;99.90
8862;DHT22;4799;50.996;4.754;2023-03-01T09:01:32;0.00;99.90
8862;DHT22;4799;50.996;4.754;2023-03-01T09:03:58;0.10;99.90
8862;DHT22;4799;50.996;4.754;2023-03-01T09:06:24;0.20;99.90
8862;DHT22;4799;50.996;4.754;2023-03-01T09:08:50;0.30;99.90
8862;DHT22;4799;50.996;4.754;2023-03-01T09:11:18;0.30;99.90
8862;DHT22;4799;50.996;4.754;2023-03-01T09:13:46;0.40;99.90
8862;DHT22;4799;50.996;4.754;2023-03-01T09:16:14;0.50;99.90
8862;DHT22;4799;50.996;4.754;2023-03-01T09:18:40;0.60;99.90
8862;DHT22;4799;50.996;4.754;2023-03-01T09:21:09;0.70;99.90
8862;DHT22;4799;50.996;4.754;2023-03-01T09:23:40;0.70;99.90
8862;DHT22;4799;50.996;4.754;2023-03-01T09:26:07;0.80;99.90
8862;DHT22;4799;50.996;4.754;2023-03-01T09:28:38;1.00;99.90
8862;DHT22;4799;50.996;4.754;2023-03-01T09:31:09;1.10;99.90
8862;DHT22;4799;50.996;4.754;2023-03-01T09:33:39;1.20;99.90
8862;DHT22;4799;50.996;4.754;2023-03-01T09:36:07;1.20;99.90
8862;DHT22;4799;50.996;4.754;2023-03-01T09:38:34;1.20;99.90
8862;DHT22;4799;50.996;4.754;2023-03-01T09:41:00;1.40;99.90
8862;DHT22;4799;50.996;4.754;2023-03-01T09:43:47;1.40;99.90
8862;DHT22;4799;50.996;4.754;2023-03-01T09:46:15;1.50;99.90
8862;DHT22;4799;50.996;4.754;2023-03-01T09:48:48;1.60;99.90
8862;DHT22;4799;50.996;4.754;2023-03-01T09:51:23;1.60;99.90
8862;DHT22;4799;50.996;4.754;2023-03-01T09:53:50;1.70;99.90
8862;DHT22;4799;50.996;4.754;2023-03-01T10:01:58;2.00;99.90
8862;DHT22;4799;50.996;4.754;2023-03-01T10:07:30;2.20;99.90
8862;DHT22;4799;50.996;4.754;2023-03-01T10:09:58;2.20;99.90
8862;DHT22;4799;50.996;4.754;2023-03-01T10:12:35;2.30;99.90
8862;DHT22;4799;50.996;4.754;2023-03-01T10:20:24;2.50;99.90
8862;DHT22;4799;50.996;4.754;2023-03-01T10:22:51;2.50;99.90
8862;DHT22;4799;50.996;4.754;2023-03-01T10:27:54;2.70;99.90
8862;DHT22;4799;50.996;4.754;2023-03-01T10:30:34;2.70;99.90
8862;DHT22;4799;50.996;4.754;2023-03-01T10:33:01;2.80;99.90
8862;DHT22;4799;50.996;4.754;2023-03-01T10:35:31;2.90;99.90
8862;DHT22;4799;50.996;4.754;2023-03-01T10:38:05;2.90;99.80
8862;DHT22;4799;50.996;4.754;2023-03-01T10:40:35;3.00;99.80
8862;DHT22;4799;50.996;4.754;2023-03-01T10:43:04;3.00;98.30
8862;DHT22;4799;50.996;4.754;2023-03-01T10:50:34;3.20;96.10
8862;DHT22;4799;50.996;4.754;2023-03-01T10:53:02;3.30;95.40
8862;DHT22;4799;50.996;4.754;2023-03-01T10:55:39;3.30;95.50
8862;DHT22;4799;50.996;4.754;2023-03-01T11:00:51;3.40;95.90
8862;DHT22;4799;50.996;4.754;2023-03-01T11:03:29;3.60;96.60
8862;DHT22;4799;50.996;4.754;2023-03-01T11:06:06;3.60;94.80
8862;DHT22;4799;50.996;4.754;2023-03-01T11:08:46;3.60;95.30
8862;DHT22;4799;50.996;4.754;2023-03-01T11:16:37;3.70;92.70
8862;DHT22;4799;50.996;4.754;2023-03-01T11:25:10;3.80;92.50
8862;DHT22;4799;50.996;4.754;2023-03-01T11:27:31;3.90;92.30
8862;DHT22;4799;50.996;4.754;2023-03-01T11:30:30;4.00;93.00
8862;DHT22;4799;50.996;4.754;2023-03-01T11:33:04;4.10;92.90
8862;DHT22;4799;50.996;4.754;2023-03-01T11:35:32;4.10;92.90
8862;DHT22;4799;50.996;4.754;2023-03-01T11:40:35;4.20;92.60
8862;DHT22;4799;50.996;4.754;2023-03-01T11:55:31;4.30;86.90
8862;DHT22;4799;50.996;4.754;2023-03-01T12:00:44;4.50;86.80
8862;DHT22;4799;50.996;4.754;2023-03-01T12:20:43;4.80;78.30
8862;DHT22;4799;50.996;4.754;2023-03-01T12:26:25;4.80;77.00
8862;DHT22;4799;50.996;4.754;2023-03-01T12:42:41;5.10;77.60
8862;DHT22;4799;50.996;4.754;2023-03-01T12:45:31;5.10;78.10
8862;DHT22;4799;50.996;4.754;2023-03-01T12:51:10;5.20;74.50
8862;DHT22;4799;50.996;4.754;2023-03-01T12:53:45;5.20;74.90
8862;DHT22;4799;50.996;4.754;2023-03-01T12:56:16;5.20;74.70
8862;DHT22;4799;50.996;4.754;2023-03-01T13:10:04;5.40;72.80
8862;DHT22;4799;50.996;4.754;2023-03-01T13:12:50;5.50;73.20
8862;DHT22;4799;50.996;4.754;2023-03-01T13:17:49;5.60;74.20
8862;DHT22;4799;50.996;4.754;2023-03-01T13:20:17;5.60;74.10
8862;DHT22;4799;50.996;4.754;2023-03-01T13:22:44;5.60;73.10
8862;DHT22;4799;50.996;4.754;2023-03-01T13:25:17;5.60;72.20
8862;DHT22;4799;50.996;4.754;2023-03-01T13:27:45;5.60;72.20
8862;DHT22;4799;50.996;4.754;2023-03-01T13:35:54;5.70;72.40
8862;DHT22;4799;50.996;4.754;2023-03-01T13:38:48;5.70;70.00
8862;DHT22;4799;50.996;4.754;2023-03-01T13:44:37;5.80;69.50
8862;DHT22;4799;50.996;4.754;2023-03-01T13:49:59;5.80;66.30
8862;DHT22;4799;50.996;4.754;2023-03-01T13:52:40;5.90;66.70
8862;DHT22;4799;50.996;4.754;2023-03-01T13:57:40;5.90;66.70
8862;DHT22;4799;50.996;4.754;2023-03-01T14:00:30;5.90;66.60
8862;DHT22;4799;50.996;4.754;2023-03-01T14:03:12;5.90;66.00
8862;DHT22;4799;50.996;4.754;2023-03-01T14:05:40;5.90;64.60
8862;DHT22;4799;50.996;4.754;2023-03-01T14:08:19;6.00;65.50
8862;DHT22;4799;50.996;4.754;2023-03-01T14:14:12;6.00;66.10
8862;DHT22;4799;50.996;4.754;2023-03-01T14:19:18;6.10;65.30
8862;DHT22;4799;50.996;4.754;2023-03-01T14:21:47;6.10;63.60
8862;DHT22;4799;50.996;4.754;2023-03-01T14:24:21;6.10;63.60
8862;DHT22;4799;50.996;4.754;2023-03-01T14:26:49;6.10;63.70
8862;DHT22;4799;50.996;4.754;2023-03-01T14:29:25;6.10;63.50
8862;DHT22;4799;50.996;4.754;2023-03-01T14:31:51;6.20;64.50
8862;DHT22;4799;50.996;4.754;2023-03-01T14:34:23;6.20;64.40
8862;DHT22;4799;50.996;4.754;2023-03-01T14:36:49;6.20;64.60
8862;DHT22;4799;50.996;4.754;2023-03-01T14:39:25;6.20;61.90
8862;DHT22;4799;50.996;4.754;2023-03-01T14:41:52;6.20;61.10
8862;DHT22;4799;50.996;4.754;2023-03-01T14:44:23;6.20;60.60
8862;DHT22;4799;50.996;4.754;2023-03-01T14:46:55;6.20;61.30
8862;DHT22;4799;50.996;4.754;2023-03-01T14:49:28;6.20;60.60
8862;DHT22;4799;50.996;4.754;2023-03-01T14:54:37;6.20;61.10
8862;DHT22;4799;50.996;4.754;2023-03-01T14:57:12;6.20;59.90
8862;DHT22;4799;50.996;4.754;2023-03-01T14:59:41;6.20;60.80
8862;DHT22;4799;50.996;4.754;2023-03-01T15:02:17;6.20;60.80
8862;DHT22;4799;50.996;4.754;2023-03-01T15:04:51;6.20;61.10
8862;DHT22;4799;50.996;4.754;2023-03-01T15:07:18;6.30;61.70
8862;DHT22;4799;50.996;4.754;2023-03-01T15:09:45;6.30;61.80
8862;DHT22;4799;50.996;4.754;2023-03-01T15:12:37;6.20;61.10
8862;DHT22;4799;50.996;4.754;2023-03-01T15:15:21;6.30;61.20
8862;DHT22;4799;50.996;4.754;2023-03-01T15:17:55;6.20;60.50
8862;DHT22;4799;50.996;4.754;2023-03-01T15:20:24;6.20;61.60
8862;DHT22;4799;50.996;4.754;2023-03-01T15:22:56;6.20;62.40
8862;DHT22;4799;50.996;4.754;2023-03-01T15:25:27;6.20;62.70
8862;DHT22;4799;50.996;4.754;2023-03-01T15:27:54;6.20;62.60
8862;DHT22;4799;50.996;4.754;2023-03-01T15:30:31;6.20;61.60
8862;DHT22;4799;50.996;4.754;2023-03-01T15:33:35;6.20;61.30
8862;DHT22;4799;50.996;4.754;2023-03-01T15:38:55;6.20;62.50
8862;DHT22;4799;50.996;4.754;2023-03-01T15:41:29;6.30;63.10
8862;DHT22;4799;50.996;4.754;2023-03-01T15:43:59;6.20;63.60
8862;DHT22;4799;50.996;4.754;2023-03-01T15:46:28;6.20;62.50
8862;DHT22;4799;50.996;4.754;2023-03-01T15:49:02;6.20;62.40
8862;DHT22;4799;50.996;4.754;2023-03-01T15:51:31;6.20;62.60
8862;DHT22;4799;50.996;4.754;2023-03-01T15:54:00;6.20;63.30
8862;DHT22;4799;50.996;4.754;2023-03-01T15:56:27;6.20;64.00
8862;DHT22;4799;50.996;4.754;2023-03-01T15:58:52;6.10;64.00
8862;DHT22;4799;50.996;4.754;2023-03-01T16:01:18;6.10;64.00
8862;DHT22;4799;50.996;4.754;2023-03-01T16:03:45;6.10;64.00
8862;DHT22;4799;50.996;4.754;2023-03-01T16:06:11;6.10;64.70
8862;DHT22;4799;50.996;4.754;2023-03-01T16:08:37;6.10;65.60
8862;DHT22;4799;50.996;4.754;2023-03-01T16:11:05;6.10;66.30
8862;DHT22;4799;50.996;4.754;2023-03-01T16:13:35;6.10;66.50
8862;DHT22;4799;50.996;4.754;2023-03-01T16:16:00;6.00;66.80
8862;DHT22;4799;50.996;4.754;2023-03-01T16:18:26;6.00;67.00
8862;DHT22;4799;50.996;4.754;2023-03-01T16:20:52;6.00;67.70
8862;DHT22;4799;50.996;4.754;2023-03-01T16:23:19;5.90;68.20
8862;DHT22;4799;50.996;4.754;2023-03-01T16:25:45;5.90;69.20
8862;DHT22;4799;50.996;4.754;2023-03-01T16:28:11;5.90;68.80
8862;DHT22;4799;50.996;4.754;2023-03-01T16:30:39;5.90;68.40
8862;DHT22;4799;50.996;4.754;2023-03-01T16:33:05;5.80;68.90
8862;DHT22;4799;50.996;4.754;2023-03-01T16:35:33;5.80;69.10
8862;DHT22;4799;50.996;4.754;2023-03-01T16:38:00;5.70;69.40
8862;DHT22;4799;50.996;4.754;2023-03-01T16:40:27;5.70;69.40
8862;DHT22;4799;50.996;4.754;2023-03-01T16:42:55;5.60;70.00
8862;DHT22;4799;50.996;4.754;2023-03-01T16:45:25;5.60;70.10
8862;DHT22;4799;50.996;4.754;2023-03-01T16:47:52;5.60;70.70
8862;DHT22;4799;50.996;4.754;2023-03-01T16:50:18;5.50;71.40
8862;DHT22;4799;50.996;4.754;2023-03-01T16:52:43;5.40;71.90
8862;DHT22;4799;50.996;4.754;2023-03-01T16:55:09;5.40;71.90
8862;DHT22;4799;50.996;4.754;2023-03-01T16:57:37;5.40;71.80
8862;DHT22;4799;50.996;4.754;2023-03-01T17:00:04;5.30;71.60
8862;DHT22;4799;50.996;4.754;2023-03-01T17:02:33;5.30;72.20
8862;DHT22;4799;50.996;4.754;2023-03-01T17:04:59;5.30;72.30
8862;DHT22;4799;50.996;4.754;2023-03-01T17:07:25;5.20;72.50
8862;DHT22;4799;50.996;4.754;2023-03-01T17:09:51;5.20;72.70
8862;DHT22;4799;50.996;4.754;2023-03-01T17:12:17;5.10;73.20
8862;DHT22;4799;50.996;4.754;2023-03-01T17:14:42;5.10;73.70
8862;DHT22;4799;50.996;4.754;2023-03-01T17:17:10;5.00;73.50
8862;DHT22;4799;50.996;4.754;2023-03-01T17:19:36;5.00;73.80
8862;DHT22;4799;50.996;4.754;2023-03-01T17:22:08;4.90;74.20
8862;DHT22;4799;50.996;4.754;2023-03-01T17:24:35;4.80;74.50
8862;DHT22;4799;50.996;4.754;2023-03-01T17:27:01;4.70;75.20
8862;DHT22;4799;50.996;4.754;2023-03-01T17:29:27;4.60;76.10
8862;DHT22;4799;50.996;4.754;2023-03-01T17:31:53;4.60;77.80
8862;DHT22;4799;50.996;4.754;2023-03-01T17:34:20;4.50;78.30
8862;DHT22;4799;50.996;4.754;2023-03-01T17:36:46;4.40;78.80
8862;DHT22;4799;50.996;4.754;2023-03-01T17:39:13;4.40;79.70
8862;DHT22;4799;50.996;4.754;2023-03-01T17:41:39;4.30;80.30
8862;DHT22;4799;50.996;4.754;2023-03-01T17:44:05;4.30;81.10
8862;DHT22;4799;50.996;4.754;2023-03-01T17:46:30;4.20;81.50
8862;DHT22;4799;50.996;4.754;2023-03-01T17:48:56;4.10;81.80
8862;DHT22;4799;50.996;4.754;2023-03-01T17:51:23;4.10;82.10
8862;DHT22;4799;50.996;4.754;2023-03-01T17:53:49;4.10;82.50
8862;DHT22;4799;50.996;4.754;2023-03-01T17:56:15;4.10;82.90
8862;DHT22;4799;50.996;4.754;2023-03-01T17:58:41;4.10;83.20
8862;DHT22;4799;50.996;4.754;2023-03-01T18:01:12;4.00;83.50
8862;DHT22;4799;50.996;4.754;2023-03-01T18:03:39;4.00;83.70
8862;DHT22;4799;50.996;4.754;2023-03-01T18:06:14;3.90;84.10
8862;DHT22;4799;50.996;4.754;2023-03-01T18:08:40;3.90;84.60
8862;DHT22;4799;50.996;4.754;2023-03-01T18:11:06;3.80;85.70
8862;DHT22;4799;50.996;4.754;2023-03-01T18:13:33;3.70;86.60
8862;DHT22;4799;50.996;4.754;2023-03-01T18:16:03;3.60;86.90
8862;DHT22;4799;50.996;4.754;2023-03-01T18:18:28;3.50;87.90
8862;DHT22;4799;50.996;4.754;2023-03-01T18:20:58;3.50;88.40
8862;DHT22;4799;50.996;4.754;2023-03-01T18:23:24;3.40;89.00
8862;DHT22;4799;50.996;4.754;2023-03-01T18:25:50;3.40;89.50
8862;DHT22;4799;50.996;4.754;2023-03-01T18:28:18;3.30;90.00
8862;DHT22;4799;50.996;4.754;2023-03-01T18:30:44;3.30;90.30
8862;DHT22;4799;50.996;4.754;2023-03-01T18:33:10;3.30;90.50
8862;DHT22;4799;50.996;4.754;2023-03-01T18:35:37;3.20;90.80
8862;DHT22;4799;50.996;4.754;2023-03-01T18:38:03;3.20;91.10
8862;DHT22;4799;50.996;4.754;2023-03-01T18:40:29;3.20;91.30
8862;DHT22;4799;50.996;4.754;2023-03-01T18:42:57;3.10;91.60